Search for airport 
image banner adimage banner adimage banner ad
image banner ad

EDCX - Purkshof

Located in Rostock, Germany

ICAO - EDCX, IATA -

Data provided by Airmate  

General information

Coordinates: N54°9'39" E12°14'54"
Elevation is 66 feet MSL.
Magnetic variation is 4.0000° East
View others Airports in Mecklenburg-Vorpommern

Operational data

Special qualification required
Current time UTC:
Current local time:
Weather at : ETNL - Laage ( 27 km )
METAR: ETNL 060120Z 24016KT 9999 SCT024 05/01 Q1000 BLU+
TAF: TAF ETNL 051605Z 0517/0605 24015G30KT 9999 NSW BKN025 TEMPO 0517/0605 26025G40KT 4000 SHRA BKN010CB BY ETGL
View NOTAMs / SUP AIP / TFR affecting this airport [VIEW]
Communications frequencies: [VIEW]

Runways:

RWY identifierQFULength (ft)Width (ft)SurfaceLDA (ft)
0445°3609131GRASS3609
22225°3609131GRASS3609

Airport contact information

Address: Rostock Germany

Other aviation service providers

Aviation club (not for profit)

Luftsportverband Mecklenburg-Vorpommern E.V

Luftsportverband Mecklenburg-Vorpommern E.V

Fliegerclub Rostock E.V.

Fliegerclub Rostock E.V.
post@fcrostock.de+49382022111

Satellite view of EDCX